sensor_id;sensor_type;location;lat;lon;timestamp;pressure;altitude;pressure_sealevel;temperature;humidity
7966;BME280;4028;43.272;26.932;2023-04-25T00:00:21;98436.97;;;12.38;100.00
7966;BME280;4028;43.272;26.932;2023-04-25T00:02:46;98436.50;;;12.35;100.00
7966;BME280;4028;43.272;26.932;2023-04-25T00:05:12;98423.78;;;12.22;100.00
7966;BME280;4028;43.272;26.932;2023-04-25T00:07:40;98427.25;;;12.22;100.00
7966;BME280;4028;43.272;26.932;2023-04-25T00:10:08;98427.25;;;12.22;100.00
7966;BME280;4028;43.272;26.932;2023-04-25T00:12:34;98433.38;;;12.23;100.00
7966;BME280;4028;43.272;26.932;2023-04-25T00:14:59;98432.41;;;12.16;100.00
7966;BME280;4028;43.272;26.932;2023-04-25T00:17:25;98430.41;;;12.18;100.00
7966;BME280;4028;43.272;26.932;2023-04-25T00:19:50;98429.13;;;12.14;100.00
7966;BME280;4028;43.272;26.932;2023-04-25T00:22:16;98429.94;;;12.14;100.00
7966;BME280;4028;43.272;26.932;2023-04-25T00:24:42;98415.88;;;12.06;100.00
7966;BME280;4028;43.272;26.932;2023-04-25T00:27:08;98427.59;;;12.19;100.00
7966;BME280;4028;43.272;26.932;2023-04-25T00:29:34;98424.97;;;12.11;100.00
7966;BME280;4028;43.272;26.932;2023-04-25T00:31:59;98429.63;;;12.09;100.00
7966;BME280;4028;43.272;26.932;2023-04-25T00:34:25;98410.13;;;11.94;100.00
7966;BME280;4028;43.272;26.932;2023-04-25T00:36:51;98421.03;;;11.99;100.00
7966;BME280;4028;43.272;26.932;2023-04-25T00:39:16;98417.06;;;12.03;100.00
7966;BME280;4028;43.272;26.932;2023-04-25T00:41:42;98412.09;;;12.00;100.00
7966;BME280;4028;43.272;26.932;2023-04-25T00:44:08;98409.25;;;12.02;100.00
7966;BME280;4028;43.272;26.932;2023-04-25T00:46:36;98417.06;;;11.95;100.00
7966;BME280;4028;43.272;26.932;2023-04-25T00:49:02;98416.75;;;11.90;100.00
7966;BME280;4028;43.272;26.932;2023-04-25T00:51:28;98410.13;;;11.86;100.00
7966;BME280;4028;43.272;26.932;2023-04-25T00:53:54;98409.50;;;11.84;100.00
7966;BME280;4028;43.272;26.932;2023-04-25T00:56:20;98406.50;;;11.79;100.00
7966;BME280;4028;43.272;26.932;2023-04-25T00:58:47;98399.88;;;11.83;100.00
7966;BME280;4028;43.272;26.932;2023-04-25T01:01:13;98398.88;;;11.84;100.00
7966;BME280;4028;43.272;26.932;2023-04-25T01:03:39;98392.56;;;11.77;100.00
7966;BME280;4028;43.272;26.932;2023-04-25T01:06:09;98387.47;;;11.83;100.00
7966;BME280;4028;43.272;26.932;2023-04-25T01:08:36;98399.53;;;11.86;100.00
7966;BME280;4028;43.272;26.932;2023-04-25T01:11:02;98380.47;;;11.90;100.00
7966;BME280;4028;43.272;26.932;2023-04-25T01:13:27;98377.34;;;11.79;100.00
7966;BME280;4028;43.272;26.932;2023-04-25T01:15:53;98362.44;;;11.61;100.00
7966;BME280;4028;43.272;26.932;2023-04-25T01:18:19;98365.59;;;11.65;100.00
7966;BME280;4028;43.272;26.932;2023-04-25T01:20:46;98377.84;;;11.74;100.00
7966;BME280;4028;43.272;26.932;2023-04-25T01:23:15;98378.69;;;11.83;100.00
7966;BME280;4028;43.272;26.932;2023-04-25T01:25:41;98375.84;;;11.76;100.00
7966;BME280;4028;43.272;26.932;2023-04-25T01:28:07;98366.88;;;11.77;100.00
7966;BME280;4028;43.272;26.932;2023-04-25T01:30:33;98363.06;;;11.80;100.00
7966;BME280;4028;43.272;26.932;2023-04-25T01:33:00;98352.16;;;11.75;100.00
7966;BME280;4028;43.272;26.932;2023-04-25T01:35:26;98314.81;;;11.53;100.00
7966;BME280;4028;43.272;26.932;2023-04-25T01:37:52;98353.00;;;11.75;100.00
7966;BME280;4028;43.272;26.932;2023-04-25T01:40:17;98343.25;;;11.67;100.00
7966;BME280;4028;43.272;26.932;2023-04-25T01:42:44;98348.69;;;11.66;100.00
7966;BME280;4028;43.272;26.932;2023-04-25T01:45:11;98347.88;;;11.65;100.00
7966;BME280;4028;43.272;26.932;2023-04-25T01:47:37;98343.41;;;11.66;100.00
7966;BME280;4028;43.272;26.932;2023-04-25T01:50:07;98346.06;;;11.66;100.00
7966;BME280;4028;43.272;26.932;2023-04-25T01:52:32;98339.28;;;11.63;100.00
7966;BME280;4028;43.272;26.932;2023-04-25T01:54:59;98332.84;;;11.58;100.00
7966;BME280;4028;43.272;26.932;2023-04-25T01:57:26;98331.34;;;11.55;100.00
7966;BME280;4028;43.272;26.932;2023-04-25T01:59:57;98322.44;;;11.48;100.00
7966;BME280;4028;43.272;26.932;2023-04-25T02:02:23;98316.13;;;11.41;100.00
7966;BME280;4028;43.272;26.932;2023-04-25T02:04:49;98325.09;;;11.40;100.00
7966;BME280;4028;43.272;26.932;2023-04-25T02:07:14;98324.63;;;11.36;100.00
7966;BME280;4028;43.272;26.932;2023-04-25T02:09:41;98326.59;;;11.42;100.00
7966;BME280;4028;43.272;26.932;2023-04-25T02:12:09;98325.91;;;11.40;100.00
7966;BME280;4028;43.272;26.932;2023-04-25T02:14:34;98325.25;;;11.38;100.00
7966;BME280;4028;43.272;26.932;2023-04-25T02:17:00;98318.31;;;11.37;100.00
7966;BME280;4028;43.272;26.932;2023-04-25T02:19:25;98322.44;;;11.40;100.00
7966;BME280;4028;43.272;26.932;2023-04-25T02:21:51;98292.19;;;11.18;100.00
7966;BME280;4028;43.272;26.932;2023-04-25T02:24:16;98306.22;;;11.35;100.00
7966;BME280;4028;43.272;26.932;2023-04-25T02:26:42;98301.28;;;11.32;100.00
7966;BME280;4028;43.272;26.932;2023-04-25T02:29:07;98287.38;;;11.30;100.00
7966;BME280;4028;43.272;26.932;2023-04-25T02:31:33;98293.00;;;11.35;100.00
7966;BME280;4028;43.272;26.932;2023-04-25T02:33:58;98297.81;;;11.31;100.00
7966;BME280;4028;43.272;26.932;2023-04-25T02:36:23;98292.47;;;11.39;100.00
7966;BME280;4028;43.272;26.932;2023-04-25T02:38:49;98263.41;;;11.15;100.00
7966;BME280;4028;43.272;26.932;2023-04-25T02:41:15;98275.81;;;11.23;100.00
7966;BME280;4028;43.272;26.932;2023-04-25T02:43:40;98290.19;;;11.36;100.00
7966;BME280;4028;43.272;26.932;2023-04-25T02:46:06;98291.16;;;11.35;100.00
7966;BME280;4028;43.272;26.932;2023-04-25T02:48:32;98289.88;;;11.31;100.00
7966;BME280;4028;43.272;26.932;2023-04-25T02:50:57;98285.22;;;11.25;100.00
7966;BME280;4028;43.272;26.932;2023-04-25T02:53:23;98276.97;;;11.20;100.00
7966;BME280;4028;43.272;26.932;2023-04-25T02:55:48;98284.75;;;11.22;100.00
7966;BME280;4028;43.272;26.932;2023-04-25T02:58:14;98283.09;;;11.20;100.00
7966;BME280;4028;43.272;26.932;2023-04-25T03:00:40;98282.28;;;11.12;100.00
7966;BME280;4028;43.272;26.932;2023-04-25T03:03:06;98281.47;;;11.11;100.00
7966;BME280;4028;43.272;26.932;2023-04-25T03:05:31;98276.31;;;11.10;100.00
7966;BME280;4028;43.272;26.932;2023-04-25T03:07:57;98263.09;;;11.10;100.00
7966;BME280;4028;43.272;26.932;2023-04-25T03:10:22;98273.84;;;11.16;100.00
7966;BME280;4028;43.272;26.932;2023-04-25T03:12:48;98275.16;;;11.12;100.00
7966;BME280;4028;43.272;26.932;2023-04-25T03:15:13;98283.63;;;11.08;100.00
7966;BME280;4028;43.272;26.932;2023-04-25T03:17:39;98279.31;;;11.07;100.00
7966;BME280;4028;43.272;26.932;2023-04-25T03:20:05;98247.91;;;10.87;100.00
7966;BME280;4028;43.272;26.932;2023-04-25T03:22:31;98269.69;;;11.14;100.00
7966;BME280;4028;43.272;26.932;2023-04-25T03:24:56;98259.97;;;11.06;100.00
7966;BME280;4028;43.272;26.932;2023-04-25T03:27:22;98274.03;;;11.07;100.00
7966;BME280;4028;43.272;26.932;2023-04-25T03:29:47;98268.41;;;11.02;100.00
7966;BME280;4028;43.272;26.932;2023-04-25T03:32:13;98267.09;;;11.06;100.00
7966;BME280;4028;43.272;26.932;2023-04-25T03:34:38;98235.00;;;10.92;100.00
7966;BME280;4028;43.272;26.932;2023-04-25T03:37:04;98269.72;;;11.06;100.00
7966;BME280;4028;43.272;26.932;2023-04-25T03:39:29;98271.38;;;11.07;100.00
7966;BME280;4028;43.272;26.932;2023-04-25T03:41:55;98255.50;;;10.99;100.00
7966;BME280;4028;43.272;26.932;2023-04-25T03:44:20;98270.38;;;11.16;100.00
7966;BME280;4028;43.272;26.932;2023-04-25T03:46:45;98268.03;;;11.21;100.00
7966;BME280;4028;43.272;26.932;2023-04-25T03:49:11;98275.94;;;11.29;100.00
7966;BME280;4028;43.272;26.932;2023-04-25T03:51:36;98274.94;;;11.47;100.00
7966;BME280;4028;43.272;26.932;2023-04-25T03:54:02;98269.41;;;11.56;100.00
7966;BME280;4028;43.272;26.932;2023-04-25T03:56:28;98266.56;;;11.66;100.00
7966;BME280;4028;43.272;26.932;2023-04-25T03:58:53;98268.31;;;11.90;100.00
7966;BME280;4028;43.272;26.932;2023-04-25T04:01:19;98274.59;;;12.20;100.00
7966;BME280;4028;43.272;26.932;2023-04-25T04:03:44;98272.69;;;12.60;100.00
7966;BME280;4028;43.272;26.932;2023-04-25T04:06:10;98259.16;;;13.07;100.00
7966;BME280;4028;43.272;26.932;2023-04-25T04:08:35;98261.28;;;13.56;100.00
7966;BME280;4028;43.272;26.932;2023-04-25T04:11:01;98251.66;;;14.42;100.00
7966;BME280;4028;43.272;26.932;2023-04-25T04:13:27;98248.81;;;15.49;100.00
7966;BME280;4028;43.272;26.932;2023-04-25T04:15:53;98222.41;;;16.16;100.00
7966;BME280;4028;43.272;26.932;2023-04-25T04:18:19;98243.38;;;16.25;100.00
7966;BME280;4028;43.272;26.932;2023-04-25T04:20:44;98254.88;;;15.65;100.00
7966;BME280;4028;43.272;26.932;2023-04-25T04:23:10;98252.25;;;15.08;100.00
7966;BME280;4028;43.272;26.932;2023-04-25T04:25:36;98265.34;;;14.39;100.00
7966;BME280;4028;43.272;26.932;2023-04-25T04:28:01;98257.50;;;13.80;100.00
7966;BME280;4028;43.272;26.932;2023-04-25T04:30:27;98259.47;;;13.27;100.00
7966;BME280;4028;43.272;26.932;2023-04-25T04:32:56;98247.69;;;12.92;100.00
7966;BME280;4028;43.272;26.932;2023-04-25T04:35:22;98249.56;;;12.83;100.00
7966;BME280;4028;43.272;26.932;2023-04-25T04:37:49;98217.34;;;12.48;100.00
7966;BME280;4028;43.272;26.932;2023-04-25T04:40:14;98250.91;;;12.64;100.00
7966;BME280;4028;43.272;26.932;2023-04-25T04:42:44;98242.19;;;12.56;100.00
7966;BME280;4028;43.272;26.932;2023-04-25T04:45:10;98255.31;;;12.72;100.00
7966;BME280;4028;43.272;26.932;2023-04-25T04:47:36;98246.97;;;12.60;100.00
7966;BME280;4028;43.272;26.932;2023-04-25T04:50:06;98241.94;;;12.65;100.00
7966;BME280;4028;43.272;26.932;2023-04-25T04:52:34;98238.91;;;12.68;100.00
7966;BME280;4028;43.272;26.932;2023-04-25T04:55:00;98241.03;;;12.73;100.00
7966;BME280;4028;43.272;26.932;2023-04-25T04:57:25;98237.22;;;12.75;100.00
7966;BME280;4028;43.272;26.932;2023-04-25T04:59:51;98245.81;;;12.78;100.00
7966;BME280;4028;43.272;26.932;2023-04-25T05:02:17;98245.97;;;12.61;100.00
7966;BME280;4028;43.272;26.932;2023-04-25T05:04:42;98246.31;;;12.58;100.00
7966;BME280;4028;43.272;26.932;2023-04-25T05:07:08;98242.91;;;12.49;100.00
7966;BME280;4028;43.272;26.932;2023-04-25T05:09:33;98214.13;;;12.38;100.00
7966;BME280;4028;43.272;26.932;2023-04-25T05:11:59;98221.09;;;12.39;100.00
7966;BME280;4028;43.272;26.932;2023-04-25T05:14:26;98257.06;;;12.65;100.00
7966;BME280;4028;43.272;26.932;2023-04-25T05:16:51;98241.47;;;12.62;100.00
7966;BME280;4028;43.272;26.932;2023-04-25T05:19:17;98236.16;;;12.62;100.00
7966;BME280;4028;43.272;26.932;2023-04-25T05:21:42;98236.63;;;12.65;100.00
7966;BME280;4028;43.272;26.932;2023-04-25T05:24:08;98226.56;;;12.61;100.00
7966;BME280;4028;43.272;26.932;2023-04-25T05:26:34;98243.19;;;12.92;100.00
7966;BME280;4028;43.272;26.932;2023-04-25T05:29:00;98245.50;;;12.95;100.00
7966;BME280;4028;43.272;26.932;2023-04-25T05:31:25;98238.19;;;13.12;100.00
7966;BME280;4028;43.272;26.932;2023-04-25T05:33:51;98243.91;;;13.39;100.00
7966;BME280;4028;43.272;26.932;2023-04-25T05:36:18;98203.56;;;13.20;100.00
7966;BME280;4028;43.272;26.932;2023-04-25T05:38:44;98232.81;;;13.35;100.00
7966;BME280;4028;43.272;26.932;2023-04-25T05:41:10;98228.84;;;13.61;100.00
7966;BME280;4028;43.272;26.932;2023-04-25T05:43:35;98234.09;;;14.05;100.00
7966;BME280;4028;43.272;26.932;2023-04-25T05:46:01;98207.19;;;14.36;100.00
7966;BME280;4028;43.272;26.932;2023-04-25T05:48:26;98212.88;;;14.76;100.00
7966;BME280;4028;43.272;26.932;2023-04-25T05:50:52;98209.16;;;15.33;100.00
7966;BME280;4028;43.272;26.932;2023-04-25T05:53:19;98203.09;;;16.00;100.00
7966;BME280;4028;43.272;26.932;2023-04-25T05:55:44;98208.03;;;16.10;100.00
7966;BME280;4028;43.272;26.932;2023-04-25T05:58:10;98203.31;;;16.12;100.00
7966;BME280;4028;43.272;26.932;2023-04-25T06:00:35;98209.97;;;16.56;100.00
7966;BME280;4028;43.272;26.932;2023-04-25T06:03:01;98206.06;;;16.92;100.00
7966;BME280;4028;43.272;26.932;2023-04-25T06:05:26;98212.38;;;17.24;100.00
7966;BME280;4028;43.272;26.932;2023-04-25T06:07:52;98201.53;;;17.70;100.00
7966;BME280;4028;43.272;26.932;2023-04-25T06:10:17;98197.78;;;17.91;100.00
7966;BME280;4028;43.272;26.932;2023-04-25T06:12:43;98198.66;;;18.16;85.42
7966;BME280;4028;43.272;26.932;2023-04-25T06:15:09;98194.63;;;18.01;99.77
7966;BME280;4028;43.272;26.932;2023-04-25T06:17:35;98199.91;;;17.76;100.00
7966;BME280;4028;43.272;26.932;2023-04-25T06:20:01;98178.06;;;17.21;97.04
7966;BME280;4028;43.272;26.932;2023-04-25T06:22:27;98208.47;;;17.20;100.00
7966;BME280;4028;43.272;26.932;2023-04-25T06:24:52;98199.72;;;16.86;100.00
7966;BME280;4028;43.272;26.932;2023-04-25T06:27:18;98201.56;;;16.72;100.00
7966;BME280;4028;43.272;26.932;2023-04-25T06:29:43;98203.19;;;16.53;100.00
7966;BME280;4028;43.272;26.932;2023-04-25T06:32:09;98199.44;;;16.21;100.00
7966;BME280;4028;43.272;26.932;2023-04-25T06:34:34;98207.22;;;16.09;100.00
7966;BME280;4028;43.272;26.932;2023-04-25T06:37:00;98207.78;;;15.92;100.00
7966;BME280;4028;43.272;26.932;2023-04-25T06:39:25;98200.78;;;15.84;100.00
7966;BME280;4028;43.272;26.932;2023-04-25T06:41:51;98208.19;;;15.95;100.00
7966;BME280;4028;43.272;26.932;2023-04-25T06:44:16;98201.81;;;15.83;100.00
7966;BME280;4028;43.272;26.932;2023-04-25T06:46:42;98202.22;;;15.86;100.00
7966;BME280;4028;43.272;26.932;2023-04-25T06:49:07;98192.78;;;15.84;100.00
7966;BME280;4028;43.272;26.932;2023-04-25T06:51:33;98208.50;;;16.47;100.00
7966;BME280;4028;43.272;26.932;2023-04-25T06:53:59;98198.72;;;16.74;100.00
7966;BME280;4028;43.272;26.932;2023-04-25T06:56:24;98203.97;;;17.13;100.00
7966;BME280;4028;43.272;26.932;2023-04-25T06:58:50;98193.81;;;17.49;100.00
7966;BME280;4028;43.272;26.932;2023-04-25T07:01:15;98193.13;;;17.73;100.00
7966;BME280;4028;43.272;26.932;2023-04-25T07:03:41;98190.28;;;17.61;100.00
7966;BME280;4028;43.272;26.932;2023-04-25T07:06:06;98190.13;;;17.43;100.00
7966;BME280;4028;43.272;26.932;2023-04-25T07:08:32;98187.09;;;17.20;100.00
7966;BME280;4028;43.272;26.932;2023-04-25T07:10:57;98188.38;;;17.04;100.00
7966;BME280;4028;43.272;26.932;2023-04-25T07:13:23;98192.13;;;16.89;100.00
7966;BME280;4028;43.272;26.932;2023-04-25T07:15:48;98159.63;;;16.59;100.00
7966;BME280;4028;43.272;26.932;2023-04-25T07:18:14;98187.16;;;17.06;100.00
7966;BME280;4028;43.272;26.932;2023-04-25T07:20:40;98192.88;;;17.17;100.00
7966;BME280;4028;43.272;26.932;2023-04-25T07:23:06;98187.09;;;17.26;100.00
7966;BME280;4028;43.272;26.932;2023-04-25T07:25:31;98178.19;;;17.52;100.00
7966;BME280;4028;43.272;26.932;2023-04-25T07:27:57;98176.16;;;17.92;100.00
7966;BME280;4028;43.272;26.932;2023-04-25T07:30:23;98174.81;;;18.40;100.00
7966;BME280;4028;43.272;26.932;2023-04-25T07:32:49;98179.81;;;18.61;91.20
7966;BME280;4028;43.272;26.932;2023-04-25T07:35:16;98179.75;;;18.93;89.20
7966;BME280;4028;43.272;26.932;2023-04-25T07:37:41;98179.56;;;19.49;79.46
7966;BME280;4028;43.272;26.932;2023-04-25T07:40:07;98151.06;;;20.15;74.42
7966;BME280;4028;43.272;26.932;2023-04-25T07:42:35;98171.06;;;20.96;68.17
7966;BME280;4028;43.272;26.932;2023-04-25T07:45:01;98160.41;;;21.13;61.95
7966;BME280;4028;43.272;26.932;2023-04-25T07:49:55;98164.88;;;22.00;60.38
7966;BME280;4028;43.272;26.932;2023-04-25T07:52:22;98165.53;;;22.36;55.39
7966;BME280;4028;43.272;26.932;2023-04-25T07:54:48;98167.41;;;22.52;55.52
7966;BME280;4028;43.272;26.932;2023-04-25T07:57:13;98162.09;;;22.23;55.04
7966;BME280;4028;43.272;26.932;2023-04-25T07:59:39;98155.75;;;21.72;55.36
7966;BME280;4028;43.272;26.932;2023-04-25T08:02:05;98163.19;;;21.18;57.64
7966;BME280;4028;43.272;26.932;2023-04-25T08:04:30;98147.88;;;21.19;57.86
7966;BME280;4028;43.272;26.932;2023-04-25T08:06:56;98153.25;;;21.19;61.78
7966;BME280;4028;43.272;26.932;2023-04-25T08:09:22;98156.19;;;21.41;60.77
7966;BME280;4028;43.272;26.932;2023-04-25T08:11:48;98120.06;;;21.25;62.17
7966;BME280;4028;43.272;26.932;2023-04-25T08:14:14;98157.81;;;21.42;59.24
7966;BME280;4028;43.272;26.932;2023-04-25T08:16:39;98147.19;;;21.12;62.84
7966;BME280;4028;43.272;26.932;2023-04-25T08:19:05;98156.28;;;21.22;58.99
7966;BME280;4028;43.272;26.932;2023-04-25T08:21:31;98159.47;;;21.19;60.95
7966;BME280;4028;43.272;26.932;2023-04-25T08:23:57;98148.84;;;20.89;60.25
7966;BME280;4028;43.272;26.932;2023-04-25T08:26:24;98176.69;;;20.83;57.30
7966;BME280;4028;43.272;26.932;2023-04-25T08:28:49;98172.81;;;20.91;58.62
7966;BME280;4028;43.272;26.932;2023-04-25T08:31:15;98166.38;;;20.92;60.46
7966;BME280;4028;43.272;26.932;2023-04-25T08:33:41;98163.34;;;20.88;62.18
7966;BME280;4028;43.272;26.932;2023-04-25T08:36:06;98165.66;;;20.61;59.60
7966;BME280;4028;43.272;26.932;2023-04-25T08:38:32;98170.22;;;20.72;58.14
7966;BME280;4028;43.272;26.932;2023-04-25T08:40:59;98168.72;;;21.12;55.17
7966;BME280;4028;43.272;26.932;2023-04-25T08:43:26;98171.16;;;21.13;52.90
7966;BME280;4028;43.272;26.932;2023-04-25T08:45:53;98148.28;;;21.63;53.03
7966;BME280;4028;43.272;26.932;2023-04-25T08:48:21;98169.06;;;22.53;51.53
7966;BME280;4028;43.272;26.932;2023-04-25T08:50:51;98146.69;;;22.52;49.17
7966;BME280;4028;43.272;26.932;2023-04-25T08:53:20;98156.28;;;22.31;49.53
7966;BME280;4028;43.272;26.932;2023-04-25T08:55:46;98150.69;;;22.83;50.78
7966;BME280;4028;43.272;26.932;2023-04-25T08:58:13;98162.16;;;23.51;48.40
7966;BME280;4028;43.272;26.932;2023-04-25T09:00:39;98145.47;;;23.76;48.41
7966;BME280;4028;43.272;26.932;2023-04-25T09:03:05;98161.13;;;24.01;45.52
7966;BME280;4028;43.272;26.932;2023-04-25T09:05:34;98168.63;;;23.50;45.43
7966;BME280;4028;43.272;26.932;2023-04-25T09:08:01;98173.63;;;23.03;47.58
7966;BME280;4028;43.272;26.932;2023-04-25T09:10:27;98175.19;;;22.82;47.24
7966;BME280;4028;43.272;26.932;2023-04-25T09:13:09;98161.53;;;22.72;47.80
7966;BME280;4028;43.272;26.932;2023-04-25T09:15:50;98142.47;;;21.83;47.96
7966;BME280;4028;43.272;26.932;2023-04-25T09:18:27;98166.00;;;21.87;49.66
7966;BME280;4028;43.272;26.932;2023-04-25T09:20:54;98164.72;;;21.78;50.14
7966;BME280;4028;43.272;26.932;2023-04-25T09:23:21;98165.31;;;22.09;50.54
7966;BME280;4028;43.272;26.932;2023-04-25T09:25:48;98156.19;;;21.81;48.96
7966;BME280;4028;43.272;26.932;2023-04-25T09:28:13;98166.91;;;21.52;50.49
7966;BME280;4028;43.272;26.932;2023-04-25T09:30:39;98167.97;;;21.92;50.01
7966;BME280;4028;43.272;26.932;2023-04-25T09:33:10;98161.41;;;22.78;49.58
7966;BME280;4028;43.272;26.932;2023-04-25T09:35:40;98160.06;;;23.37;47.01
7966;BME280;4028;43.272;26.932;2023-04-25T09:38:13;98151.63;;;23.99;45.49
7966;BME280;4028;43.272;26.932;2023-04-25T09:40:43;98132.78;;;24.04;44.92
7966;BME280;4028;43.272;26.932;2023-04-25T09:43:21;98156.31;;;22.65;46.23
7966;BME280;4028;43.272;26.932;2023-04-25T09:45:48;98127.47;;;22.15;47.26
7966;BME280;4028;43.272;26.932;2023-04-25T09:48:24;98151.22;;;21.90;47.98
7966;BME280;4028;43.272;26.932;2023-04-25T09:51:09;98154.13;;;21.71;48.39
7966;BME280;4028;43.272;26.932;2023-04-25T09:53:45;98157.16;;;21.35;49.39
7966;BME280;4028;43.272;26.932;2023-04-25T09:56:12;98134.31;;;21.14;50.34
7966;BME280;4028;43.272;26.932;2023-04-25T09:58:40;98159.13;;;21.16;51.03
7966;BME280;4028;43.272;26.932;2023-04-25T10:01:07;98143.78;;;21.28;49.93
7966;BME280;4028;43.272;26.932;2023-04-25T10:03:34;98136.78;;;21.03;50.81
7966;BME280;4028;43.272;26.932;2023-04-25T10:06:06;98140.19;;;21.11;51.54
7966;BME280;4028;43.272;26.932;2023-04-25T10:08:34;98131.41;;;21.15;51.19
7966;BME280;4028;43.272;26.932;2023-04-25T10:11:01;98129.56;;;21.04;51.74
7966;BME280;4028;43.272;26.932;2023-04-25T10:13:29;98118.81;;;20.81;53.10
7966;BME280;4028;43.272;26.932;2023-04-25T10:15:57;98128.88;;;20.85;52.18
7966;BME280;4028;43.272;26.932;2023-04-25T10:18:27;98126.97;;;20.97;52.75
7966;BME280;4028;43.272;26.932;2023-04-25T10:20:58;98111.97;;;21.13;52.48
7966;BME280;4028;43.272;26.932;2023-04-25T10:23:25;98130.38;;;20.69;53.81
7966;BME280;4028;43.272;26.932;2023-04-25T10:25:52;98127.94;;;20.80;53.61
7966;BME280;4028;43.272;26.932;2023-04-25T10:28:18;98128.97;;;20.90;53.83
7966;BME280;4028;43.272;26.932;2023-04-25T10:31:07;98117.19;;;20.68;53.91
7966;BME280;4028;43.272;26.932;2023-04-25T10:33:39;98119.03;;;20.67;53.64
7966;BME280;4028;43.272;26.932;2023-04-25T10:36:15;98107.22;;;20.57;54.21
7966;BME280;4028;43.272;26.932;2023-04-25T10:38:43;98111.69;;;20.74;54.78
7966;BME280;4028;43.272;26.932;2023-04-25T10:41:10;98107.75;;;21.29;52.55
7966;BME280;4028;43.272;26.932;2023-04-25T10:43:46;98097.53;;;21.83;50.13
7966;BME280;4028;43.272;26.932;2023-04-25T10:46:22;98097.19;;;22.25;49.09
7966;BME280;4028;43.272;26.932;2023-04-25T10:48:48;98099.06;;;22.24;50.58
7966;BME280;4028;43.272;26.932;2023-04-25T10:51:22;98092.06;;;22.23;49.89
7966;BME280;4028;43.272;26.932;2023-04-25T10:56:24;98086.75;;;22.12;48.79
7966;BME280;4028;43.272;26.932;2023-04-25T10:58:50;98043.91;;;21.82;50.06
7966;BME280;4028;43.272;26.932;2023-04-25T11:01:24;98077.84;;;22.45;49.59
7966;BME280;4028;43.272;26.932;2023-04-25T11:03:57;98073.59;;;22.15;49.24
7966;BME280;4028;43.272;26.932;2023-04-25T11:06:30;98086.75;;;22.28;49.55
7966;BME280;4028;43.272;26.932;2023-04-25T11:09:00;98090.34;;;21.89;49.76
7966;BME280;4028;43.272;26.932;2023-04-25T11:11:26;98082.19;;;21.84;50.54
7966;BME280;4028;43.272;26.932;2023-04-25T11:13:52;98081.84;;;22.25;50.76
7966;BME280;4028;43.272;26.932;2023-04-25T11:16:17;98076.31;;;22.71;49.82
7966;BME280;4028;43.272;26.932;2023-04-25T11:18:44;98077.44;;;22.53;47.89
7966;BME280;4028;43.272;26.932;2023-04-25T11:21:10;98068.84;;;22.56;47.31
7966;BME280;4028;43.272;26.932;2023-04-25T11:23:36;98069.41;;;22.58;47.64
7966;BME280;4028;43.272;26.932;2023-04-25T11:26:03;98073.75;;;22.25;48.33
7966;BME280;4028;43.272;26.932;2023-04-25T11:28:30;98071.47;;;22.34;49.31
7966;BME280;4028;43.272;26.932;2023-04-25T11:30:56;98072.59;;;22.21;50.01
7966;BME280;4028;43.272;26.932;2023-04-25T11:33:25;98066.69;;;21.91;50.93
7966;BME280;4028;43.272;26.932;2023-04-25T11:35:53;98068.72;;;21.84;51.11
7966;BME280;4028;43.272;26.932;2023-04-25T11:38:20;98069.13;;;21.75;51.57
7966;BME280;4028;43.272;26.932;2023-04-25T11:40:50;98060.59;;;21.50;51.25
7966;BME280;4028;43.272;26.932;2023-04-25T11:43:17;98024.00;;;21.37;52.44
7966;BME280;4028;43.272;26.932;2023-04-25T11:45:49;98050.00;;;21.60;52.26
7966;BME280;4028;43.272;26.932;2023-04-25T11:48:16;98050.09;;;21.37;50.97
7966;BME280;4028;43.272;26.932;2023-04-25T11:50:42;98039.78;;;21.45;50.12
7966;BME280;4028;43.272;26.932;2023-04-25T11:53:07;98046.16;;;21.56;50.97
7966;BME280;4028;43.272;26.932;2023-04-25T11:55:33;98036.06;;;21.80;49.64
7966;BME280;4028;43.272;26.932;2023-04-25T11:58:00;98037.38;;;21.77;50.41
7966;BME280;4028;43.272;26.932;2023-04-25T12:00:26;98035.97;;;21.75;52.29
7966;BME280;4028;43.272;26.932;2023-04-25T12:02:53;98025.00;;;21.19;53.76
7966;BME280;4028;43.272;26.932;2023-04-25T12:05:19;98028.00;;;21.23;55.39
7966;BME280;4028;43.272;26.932;2023-04-25T12:07:46;98025.41;;;21.28;55.29
7966;BME280;4028;43.272;26.932;2023-04-25T12:10:13;98006.38;;;21.18;55.36
7966;BME280;4028;43.272;26.932;2023-04-25T12:12:43;98020.66;;;21.30;57.43
7966;BME280;4028;43.272;26.932;2023-04-25T12:15:23;98018.91;;;21.12;58.25
7966;BME280;4028;43.272;26.932;2023-04-25T12:17:50;98012.06;;;21.05;57.54
7966;BME280;4028;43.272;26.932;2023-04-25T12:20:21;98019.31;;;21.04;58.40
7966;BME280;4028;43.272;26.932;2023-04-25T12:22:49;98003.19;;;20.92;57.02
7966;BME280;4028;43.272;26.932;2023-04-25T12:28:19;98016.69;;;20.69;57.70
7966;BME280;4028;43.272;26.932;2023-04-25T12:31:01;98020.66;;;20.66;58.07
7966;BME280;4028;43.272;26.932;2023-04-25T12:33:29;98029.88;;;20.70;58.16
7966;BME280;4028;43.272;26.932;2023-04-25T12:35:55;98028.38;;;20.63;59.18
7966;BME280;4028;43.272;26.932;2023-04-25T12:38:29;98041.78;;;20.16;61.63
7966;BME280;4028;43.272;26.932;2023-04-25T12:40:56;98076.28;;;19.89;64.04
7966;BME280;4028;43.272;26.932;2023-04-25T12:43:21;98089.69;;;19.59;70.08
7966;BME280;4028;43.272;26.932;2023-04-25T12:45:51;98076.47;;;18.29;100.00
7966;BME280;4028;43.272;26.932;2023-04-25T12:48:17;98075.16;;;17.43;100.00
7966;BME280;4028;43.272;26.932;2023-04-25T12:50:43;98079.72;;;16.78;100.00
7966;BME280;4028;43.272;26.932;2023-04-25T12:53:09;98108.09;;;16.59;100.00
7966;BME280;4028;43.272;26.932;2023-04-25T12:55:34;98117.94;;;16.45;100.00
7966;BME280;4028;43.272;26.932;2023-04-25T12:58:00;98136.00;;;16.30;100.00
7966;BME280;4028;43.272;26.932;2023-04-25T13:00:26;98130.63;;;15.90;100.00
7966;BME280;4028;43.272;26.932;2023-04-25T13:02:52;98155.97;;;15.18;100.00
7966;BME280;4028;43.272;26.932;2023-04-25T13:05:17;98166.72;;;14.97;100.00
7966;BME280;4028;43.272;26.932;2023-04-25T13:07:43;98171.63;;;15.34;100.00
7966;BME280;4028;43.272;26.932;2023-04-25T13:10:09;98175.66;;;15.17;100.00